McGuire AFB, NJ

8:42 PM EDT on May 26, 2017 (GMT -0400)
McGuire Air Force Base

Weather History for KWRI - September, 2013

Change the Weather History Date:

Monday, September 2, 2013

  Actual Average Record
Temperature  
Mean Temperature 74 °F -  
Max Temperature 79 °F 79 °F 96 °F (2010)
Min Temperature 69 °F 60 °F 53 °F (2001)
Cooling Degree Days 9    
Growing Degree Days 24 (Base 50)    
Moisture  
Dew Point 73 °F    
Average Humidity 98    
Maximum Humidity 100    
Minimum Humidity 80    
Precipitation  
Precipitation 0.19 in - - ()
Sea Level Pressure  
Sea Level Pressure 29.76 in    
Wind  
Wind Speed 3 mph (South)    
Max Wind Speed 9 mph    
Max Gust Speed -    
Visibility 6 miles    
Events Rain , Thunderstorm    
Averages and records for this station are not official NWS values.
T = Trace of Precipitation, MM = Missing Value Source: NWS Daily Summary

Daily Weather History Graph

Daily Weather History Graph

Search for Another Location

Airport or City:

Trip Planner

Search our weather history database for the weather conditions in past years. The results will help you decide how hot, cold, wet, or windy it might be!

Date:

Astronomy

Sep. 02, 2013 Rise Set
Actual Time 6:27 AM EDT 7:27 PM EDT
Civil Twilight 5:59 AM EDT 7:55 PM EDT
Nautical Twilight 5:26 AM EDT 8:28 PM EDT
Astronomical Twilight 4:52 AM EDT 9:02 PM EDT
Moon 3:41 AM EDT (9/2) 5:39 PM EDT (9/2)
Length of Visible Light 13h 56m
Length of Day
13h 00m
Waning Crescent, 8% of the Moon is Illuminated
Sep 2
Waning Crescent
Sep 5
New
Sep 12
First Quarter
Sep 19
Full
Sep 26
Last Quarter

Hourly Weather History & Observations

Time (EDT) Temp. Dew Point Humidity Pressure Visibility Wind Dir Wind Speed Gust Speed Precip Events Conditions
12:13 AM 75.2 °F 73.4 °F 94% 29.78 in 10.0 mi South 5.8 mph - N/A   Partly Cloudy
12:40 AM 75.2 °F 73.4 °F 94% 29.78 in 10.0 mi South 4.6 mph - N/A   Mostly Cloudy
12:41 AM 75.2 °F 73.4 °F 94% 29.78 in 10.0 mi South 4.6 mph - N/A   Mostly Cloudy
12:58 AM 74.3 °F 73.9 °F 99% 29.79 in 10.0 mi South 4.6 mph - N/A   Overcast
1:01 AM 75.2 °F 73.4 °F 94% 29.78 in 10.0 mi South 4.6 mph - N/A   Overcast
1:32 AM 75.2 °F 73.4 °F 94% 29.78 in 10.0 mi South 3.5 mph - N/A   Overcast
1:47 AM 75.2 °F 73.4 °F 94% 29.77 in 9.0 mi Variable 2.3 mph - N/A   Overcast
1:58 AM 74.3 °F 73.9 °F 99% 29.79 in 9.0 mi SW 3.5 mph - N/A   Overcast
2:26 AM 73.4 °F 73.4 °F 100% 29.78 in 7.0 mi SSW 6.9 mph - N/A   Overcast
2:43 AM 73.4 °F 73.4 °F 100% 29.77 in 6.0 mi SSW 5.8 mph - N/A   Overcast
2:53 AM 73.4 °F 73.4 °F 100% 29.77 in 5.0 mi Variable 2.3 mph - N/A   Overcast
2:58 AM 74.1 °F 73.8 °F 99% 29.78 in 4.0 mi SSW 4.6 mph - N/A   Overcast
3:58 AM 73.4 °F 73.4 °F 100% 29.77 in 4.0 mi Calm Calm - N/A   Overcast
4:03 AM 73.4 °F 73.4 °F 100% 29.76 in 5.0 mi SW 2.3 mph - N/A   Overcast
4:06 AM 73.4 °F 73.4 °F 100% 29.76 in 5.0 mi WSW 2.3 mph - N/A   Overcast
4:12 AM 73.4 °F 73.4 °F 100% 29.76 in 4.0 mi SSW 2.3 mph - N/A   Overcast
4:22 AM 73.4 °F 73.4 °F 100% 29.76 in 4.0 mi SW 2.3 mph - N/A   Overcast
4:32 AM 73.4 °F 73.4 °F 100% 29.75 in 4.0 mi South 1.2 mph - N/A   Overcast
4:36 AM 73.4 °F 73.4 °F 100% 29.75 in 2.5 mi SSW 3.5 mph - N/A   Overcast
4:51 AM 73.4 °F 73.4 °F 100% 29.75 in 1.8 mi ENE 1.2 mph - N/A   Overcast
4:53 AM 73.4 °F 73.4 °F 100% 29.75 in 1.5 mi South 3.5 mph - N/A   Overcast
4:56 AM 73.4 °F 73.4 °F 100% 29.75 in 1.2 mi South 2.3 mph - N/A   Overcast
4:58 AM 73.6 °F 73.6 °F 100% 29.76 in 1.2 mi South 3.5 mph - N/A   Overcast
5:10 AM 73.4 °F 73.4 °F 100% 29.76 in 1.5 mi South 4.6 mph - N/A   Overcast
5:20 AM 73.4 °F 73.4 °F 100% 29.75 in 1.2 mi SSW 4.6 mph - N/A   Overcast
5:21 AM 73.4 °F 73.4 °F 100% 29.75 in 1.5 mi SSW 4.6 mph - N/A   Overcast
5:33 AM 73.4 °F 73.4 °F 100% 29.76 in 1.2 mi South 2.3 mph - N/A   Overcast
5:47 AM 73.4 °F 73.4 °F 100% 29.75 in 1.5 mi SSE 1.2 mph - N/A   Overcast
5:52 AM 73.4 °F 73.4 °F 100% 29.75 in 1.2 mi SE 2.3 mph - N/A   Overcast
5:58 AM 73.9 °F 73.9 °F 100% 29.76 in 1.2 mi SE 2.3 mph - N/A   Overcast
6:07 AM 73.4 °F 73.4 °F 100% 29.75 in 1.5 mi SSE 2.3 mph - N/A   Overcast
6:12 AM 73.4 °F 73.4 °F 100% 29.75 in 1.8 mi Calm Calm - N/A   Overcast
6:13 AM 73.4 °F 73.4 °F 100% 29.75 in 2.0 mi East 1.2 mph - N/A Rain Light Rain
6:14 AM 73.4 °F 73.4 °F 100% 29.76 in 2.0 mi SSE 1.2 mph - N/A   Overcast
6:17 AM 73.4 °F 73.4 °F 100% 29.76 in 3.0 mi SSW 2.3 mph - N/A   Overcast
6:18 AM 73.4 °F 73.4 °F 100% 29.76 in 3.0 mi SSW 2.3 mph - N/A   Overcast
6:22 AM 73.4 °F 73.4 °F 100% 29.75 in 3.0 mi SSW 2.3 mph - N/A   Overcast
6:23 AM 73.4 °F 73.4 °F 100% 29.76 in 3.0 mi SSW 2.3 mph - N/A   Overcast
6:24 AM 73.4 °F 73.4 °F 100% 29.75 in 3.0 mi WSW 1.2 mph - N/A   Overcast
6:27 AM 73.4 °F 73.4 °F 100% 29.76 in 2.5 mi Calm Calm - N/A   Overcast
6:34 AM 73.4 °F 73.4 °F 100% 29.76 in 1.8 mi South 2.3 mph - N/A   Overcast
6:37 AM 73.4 °F 73.4 °F 100% 29.76 in 1.5 mi South 1.2 mph - N/A   Overcast
6:44 AM 73.4 °F 73.4 °F 100% 29.76 in 1.2 mi SE 1.2 mph - N/A   Overcast
6:46 AM 73.4 °F 73.4 °F 100% 29.76 in 1.5 mi Calm Calm - N/A   Overcast
6:58 AM 73.9 °F 73.9 °F 100% 29.77 in 1.5 mi SE 2.3 mph - 0.00 in   Overcast
7:01 AM 73.4 °F 73.4 °F 100% 29.76 in 1.8 mi East 1.2 mph - N/A   Overcast
7:04 AM 73.4 °F 73.4 °F 100% 29.76 in 2.0 mi Calm Calm - N/A   Overcast
7:13 AM 73.4 °F 73.4 °F 100% 29.77 in 1.8 mi South 2.3 mph - N/A   Overcast
7:15 AM 73.4 °F 73.4 °F 100% 29.77 in 2.0 mi South 2.3 mph - N/A   Overcast
7:29 AM 73.4 °F 73.4 °F 100% 29.77 in 1.8 mi SE 2.3 mph - N/A   Overcast
7:33 AM 73.4 °F 73.4 °F 100% 29.77 in 1.5 mi SE 2.3 mph - N/A   Overcast
7:44 AM 73.4 °F 73.4 °F 100% 29.77 in 1.8 mi SSE 2.3 mph - N/A   Overcast
7:46 AM 73.4 °F 73.4 °F 100% 29.77 in 2.0 mi SE 2.3 mph - N/A   Overcast
7:58 AM 74.3 °F 74.3 °F 100% 29.78 in 2.0 mi SE 2.3 mph - N/A   Overcast
8:03 AM 75.2 °F 75.2 °F 100% 29.77 in 1.8 mi ESE 2.3 mph - N/A   Overcast
8:05 AM 75.2 °F 75.2 °F 100% 29.77 in 2.0 mi SE 2.3 mph - N/A   Overcast
8:20 AM 75.2 °F 75.2 °F 100% 29.77 in 3.0 mi SSE 2.3 mph - N/A   Overcast
8:32 AM 75.2 °F 75.2 °F 100% 29.77 in 2.5 mi Calm Calm - N/A   Overcast
8:56 AM 75.2 °F 75.2 °F 100% 29.77 in 3.0 mi Calm Calm - N/A   Overcast
8:58 AM 74.7 °F 74.7 °F 100% 29.78 in 3.0 mi Calm Calm - N/A   Overcast
9:06 AM 75.2 °F 75.2 °F 100% 29.77 in 5.0 mi South 2.3 mph - N/A   Overcast
9:13 AM 75.2 °F 75.2 °F 100% 29.77 in 7.0 mi Calm Calm - N/A Rain Light Rain
9:22 AM 75.2 °F 75.2 °F 100% 29.77 in 6.0 mi Calm Calm - N/A   Overcast
9:58 AM 75.2 °F 75.2 °F 100% 29.79 in 7.0 mi SSE 2.3 mph - 0.00 in   Overcast
10:58 AM 75.7 °F 75.6 °F 99% 29.80 in 9.0 mi SSW 3.5 mph - N/A   Overcast
11:16 AM 75.2 °F 75.2 °F 100% 29.79 in 8.0 mi SW 1.2 mph - N/A Rain , Thunderstorm Light Thunderstorms and Rain
11:39 AM 75.2 °F 75.2 °F 100% 29.78 in 2.5 mi SSW 3.5 mph - N/A Rain , Thunderstorm Thunderstorms and Rain
11:43 AM 73.4 °F 73.4 °F 100% 29.78 in 3.0 mi SW 9.2 mph - N/A Rain , Thunderstorm Thunderstorms and Rain
11:44 AM 73.4 °F 73.4 °F 100% 29.78 in 3.0 mi SSW 9.2 mph - N/A Rain Rain
11:53 AM 73.4 °F 71.6 °F 94% 29.78 in 5.0 mi SSW 5.8 mph - N/A Rain Rain
11:55 AM 71.6 °F 71.6 °F 100% 29.78 in 5.0 mi SSW 6.9 mph - N/A Rain Rain
11:58 AM 72.5 °F 71.6 °F 97% 29.79 in 5.0 mi South 5.8 mph - 0.08 in Rain Rain
12:08 PM 71.6 °F 71.6 °F 100% 29.77 in 5.0 mi South 4.6 mph - N/A Rain Rain
12:12 PM 71.6 °F 71.6 °F 100% 29.78 in 5.0 mi South 2.3 mph - N/A Rain Light Rain
12:31 PM 71.6 °F 71.6 °F 100% 29.76 in 10.0 mi ESE 3.5 mph - N/A   Mostly Cloudy
12:48 PM 71.6 °F 71.6 °F 100% 29.76 in 10.0 mi SSW 3.5 mph - N/A Rain Light Rain
12:53 PM 71.6 °F 71.6 °F 100% 29.76 in 10.0 mi SW 2.3 mph - N/A Rain Light Rain
12:58 PM 71.4 °F 71.1 °F 99% 29.77 in 10.0 mi SW 4.6 mph - 0.03 in Rain Light Rain
1:02 PM 71.6 °F 71.6 °F 100% 29.77 in 10.0 mi SW 3.5 mph - N/A Rain Light Rain
1:12 PM 71.6 °F 71.6 °F 100% 29.78 in 9.0 mi West 8.1 mph - N/A Rain Light Rain
1:14 PM 71.6 °F 71.6 °F 100% 29.78 in 8.0 mi West 9.2 mph - N/A Rain Light Rain
1:58 PM 71.8 °F 71.1 °F 98% 29.78 in 8.0 mi WSW 2.3 mph - 0.06 in Rain Light Rain
2:37 PM 73.4 °F 71.6 °F 94% 29.77 in 10.0 mi Variable 2.3 mph - N/A Rain Light Rain
2:54 PM 73.4 °F 71.6 °F 94% 29.77 in 10.0 mi West 3.5 mph - N/A   Scattered Clouds
2:58 PM 74.3 °F 71.6 °F 91% 29.78 in 10.0 mi Variable 4.6 mph - 0.02 in   Scattered Clouds
3:58 PM 76.6 °F 70.3 °F 81% 29.74 in 10.0 mi Variable 2.3 mph - N/A   Partly Cloudy
4:17 PM 77.0 °F 71.6 °F 83% 29.73 in 10.0 mi SSE 3.5 mph - N/A   Partly Cloudy
4:58 PM 79.2 °F 72.5 °F 80% 29.74 in 10.0 mi South 5.8 mph - N/A   Clear
5:58 PM 77.2 °F 71.8 °F 83% 29.73 in 10.0 mi South 4.6 mph - N/A   Clear
6:58 PM 76.5 °F 71.6 °F 85% 29.73 in 10.0 mi SSW 4.6 mph - N/A   Clear
7:58 PM 73.4 °F 71.8 °F 95% 29.73 in 10.0 mi South 2.3 mph - N/A   Clear
8:53 PM 73.4 °F 71.6 °F 94% 29.73 in 10.0 mi Calm Calm - N/A Rain Light Rain
8:58 PM 72.7 °F 72.0 °F 98% 29.74 in 10.0 mi SE 2.3 mph - 0.00 in Rain Light Rain
9:20 PM 71.6 °F 71.6 °F 100% 29.73 in 10.0 mi South 1.2 mph - N/A   Clear
9:58 PM 71.6 °F 71.2 °F 99% 29.73 in 10.0 mi SSE 2.3 mph - 0.00 in   Clear
10:27 PM 71.6 °F 71.6 °F 100% 29.73 in 10.0 mi Calm Calm - N/A   Clear
10:28 PM 71.6 °F 71.6 °F 100% 29.73 in 10.0 mi NE 1.2 mph - N/A   Clear
10:33 PM 71.6 °F 71.6 °F 100% 29.73 in 10.0 mi ENE 1.2 mph - N/A Rain Light Rain
10:42 PM 71.6 °F 71.6 °F 100% 29.73 in 9.0 mi Calm Calm - N/A Rain Light Rain
10:43 PM 71.6 °F 71.6 °F 100% 29.73 in 9.0 mi Calm Calm - N/A   Clear
10:56 PM 69.8 °F 69.8 °F 100% 29.73 in 7.0 mi East 2.3 mph - N/A   Clear
10:58 PM 70.7 °F 70.3 °F 99% 29.74 in 7.0 mi East 2.3 mph - 0.00 in   Clear
11:17 PM 69.8 °F 69.8 °F 100% 29.73 in 7.0 mi SE 2.3 mph - N/A   Clear
11:33 PM 69.8 °F 69.8 °F 100% 29.73 in 7.0 mi SE 2.3 mph - N/A   Clear
11:53 PM 69.8 °F 69.8 °F 100% 29.74 in 7.0 mi South 2.3 mph - N/A   Partly Cloudy
11:58 PM 70.3 °F 70.0 °F 99% 29.75 in 8.0 mi South 3.5 mph - N/A   Partly Cloudy